sensor_id;sensor_type;location;lat;lon;timestamp;pressure;altitude;pressure_sealevel;temperature;humidity
19751;BME280;4663;49.120;9.730;2023-01-26T00:00:45;98611.13;;;-3.21;87.36
19751;BME280;4663;49.120;9.730;2023-01-26T00:03:11;98626.66;;;-3.15;87.18
19751;BME280;4663;49.120;9.730;2023-01-26T00:05:37;98619.69;;;-3.00;86.64
19751;BME280;4663;49.120;9.730;2023-01-26T00:08:03;98622.09;;;-2.95;86.55
19751;BME280;4663;49.120;9.730;2023-01-26T00:10:28;98608.50;;;-3.21;87.26
19751;BME280;4663;49.120;9.730;2023-01-26T00:12:54;98596.94;;;-3.18;85.81
19751;BME280;4663;49.120;9.730;2023-01-26T00:15:19;98591.88;;;-3.07;86.05
19751;BME280;4663;49.120;9.730;2023-01-26T00:17:44;98587.38;;;-3.05;85.79
19751;BME280;4663;49.120;9.730;2023-01-26T00:20:10;98597.00;;;-3.04;86.12
19751;BME280;4663;49.120;9.730;2023-01-26T00:22:35;98590.03;;;-3.05;86.35
19751;BME280;4663;49.120;9.730;2023-01-26T00:25:01;98587.72;;;-3.11;86.77
19751;BME280;4663;49.120;9.730;2023-01-26T00:27:26;98581.31;;;-3.23;86.62
19751;BME280;4663;49.120;9.730;2023-01-26T00:29:52;98579.97;;;-3.64;87.58
19751;BME280;4663;49.120;9.730;2023-01-26T00:32:17;98585.69;;;-3.56;88.13
19751;BME280;4663;49.120;9.730;2023-01-26T00:34:43;98576.03;;;-3.23;87.81
19751;BME280;4663;49.120;9.730;2023-01-26T00:37:09;98577.34;;;-3.14;86.78
19751;BME280;4663;49.120;9.730;2023-01-26T00:39:34;98563.19;;;-3.13;86.54
19751;BME280;4663;49.120;9.730;2023-01-26T00:41:59;98571.88;;;-3.27;87.13
19751;BME280;4663;49.120;9.730;2023-01-26T00:44:32;98566.00;;;-3.32;87.36
19751;BME280;4663;49.120;9.730;2023-01-26T00:46:57;98569.81;;;-3.38;87.00
19751;BME280;4663;49.120;9.730;2023-01-26T00:49:23;98568.97;;;-3.39;87.60
19751;BME280;4663;49.120;9.730;2023-01-26T00:51:48;98569.28;;;-3.45;87.45
19751;BME280;4663;49.120;9.730;2023-01-26T00:54:14;98563.91;;;-3.43;87.53
19751;BME280;4663;49.120;9.730;2023-01-26T00:56:39;98560.00;;;-3.36;86.87
19751;BME280;4663;49.120;9.730;2023-01-26T00:59:04;98549.47;;;-3.20;86.64
19751;BME280;4663;49.120;9.730;2023-01-26T01:01:30;98563.94;;;-3.27;86.24
19751;BME280;4663;49.120;9.730;2023-01-26T01:03:56;98561.38;;;-3.29;85.98
19751;BME280;4663;49.120;9.730;2023-01-26T01:06:22;98565.22;;;-3.34;86.82
19751;BME280;4663;49.120;9.730;2023-01-26T01:08:47;98552.09;;;-3.52;87.06
19751;BME280;4663;49.120;9.730;2023-01-26T01:11:13;98550.97;;;-3.48;87.45
19751;BME280;4663;49.120;9.730;2023-01-26T01:13:38;98545.59;;;-3.46;87.36
19751;BME280;4663;49.120;9.730;2023-01-26T01:16:14;98552.25;;;-3.55;87.10
19751;BME280;4663;49.120;9.730;2023-01-26T01:18:41;98560.28;;;-3.74;88.08
19751;BME280;4663;49.120;9.730;2023-01-26T01:21:08;98560.00;;;-3.86;88.54
19751;BME280;4663;49.120;9.730;2023-01-26T01:23:34;98558.63;;;-4.11;89.45
19751;BME280;4663;49.120;9.730;2023-01-26T01:25:59;98556.00;;;-3.77;89.18
19751;BME280;4663;49.120;9.730;2023-01-26T01:28:25;98552.28;;;-3.73;89.05
19751;BME280;4663;49.120;9.730;2023-01-26T01:30:50;98544.84;;;-3.48;88.36
19751;BME280;4663;49.120;9.730;2023-01-26T01:33:16;98546.38;;;-3.44;87.79
19751;BME280;4663;49.120;9.730;2023-01-26T01:35:41;98546.44;;;-3.46;87.60
19751;BME280;4663;49.120;9.730;2023-01-26T01:38:07;98549.25;;;-3.49;87.17
19751;BME280;4663;49.120;9.730;2023-01-26T01:40:32;98541.88;;;-3.42;87.00
19751;BME280;4663;49.120;9.730;2023-01-26T01:42:57;98546.16;;;-3.73;87.76
19751;BME280;4663;49.120;9.730;2023-01-26T01:47:56;98541.63;;;-3.71;87.69
19751;BME280;4663;49.120;9.730;2023-01-26T01:50:24;98537.50;;;-3.59;87.75
19751;BME280;4663;49.120;9.730;2023-01-26T01:52:50;98538.53;;;-3.46;87.48
19751;BME280;4663;49.120;9.730;2023-01-26T01:55:18;98530.44;;;-3.43;87.05
19751;BME280;4663;49.120;9.730;2023-01-26T01:57:47;98531.38;;;-3.44;86.86
19751;BME280;4663;49.120;9.730;2023-01-26T02:00:18;98528.41;;;-3.54;87.33
19751;BME280;4663;49.120;9.730;2023-01-26T02:02:57;98537.34;;;-3.40;87.82
19751;BME280;4663;49.120;9.730;2023-01-26T02:05:46;98534.78;;;-3.58;87.86
19751;BME280;4663;49.120;9.730;2023-01-26T02:08:15;98526.53;;;-3.35;87.27
19751;BME280;4663;49.120;9.730;2023-01-26T02:10:45;98519.28;;;-3.32;86.73
19751;BME280;4663;49.120;9.730;2023-01-26T02:13:11;98525.91;;;-3.41;87.58
19751;BME280;4663;49.120;9.730;2023-01-26T02:15:37;98519.97;;;-3.44;87.17
19751;BME280;4663;49.120;9.730;2023-01-26T02:18:03;98512.72;;;-3.24;87.28
19751;BME280;4663;49.120;9.730;2023-01-26T02:23:29;98510.19;;;-3.42;86.73
19751;BME280;4663;49.120;9.730;2023-01-26T02:26:13;98502.94;;;-3.22;86.59
19751;BME280;4663;49.120;9.730;2023-01-26T02:28:40;98491.19;;;-3.33;86.38
19751;BME280;4663;49.120;9.730;2023-01-26T02:31:07;98490.66;;;-3.23;86.08
19751;BME280;4663;49.120;9.730;2023-01-26T02:33:33;98482.47;;;-3.35;86.16
19751;BME280;4663;49.120;9.730;2023-01-26T02:35:59;98485.97;;;-3.34;86.04
19751;BME280;4663;49.120;9.730;2023-01-26T02:38:29;98474.13;;;-3.43;86.39
19751;BME280;4663;49.120;9.730;2023-01-26T02:41:08;98475.66;;;-3.39;86.50
19751;BME280;4663;49.120;9.730;2023-01-26T02:43:35;98476.09;;;-3.47;87.44
19751;BME280;4663;49.120;9.730;2023-01-26T02:46:00;98478.00;;;-3.83;87.89
19751;BME280;4663;49.120;9.730;2023-01-26T02:48:26;98485.63;;;-3.60;88.73
19751;BME280;4663;49.120;9.730;2023-01-26T02:51:09;98473.69;;;-3.84;88.56
19751;BME280;4663;49.120;9.730;2023-01-26T02:53:35;98473.00;;;-3.87;88.40
19751;BME280;4663;49.120;9.730;2023-01-26T02:56:01;98464.41;;;-3.59;88.43
19751;BME280;4663;49.120;9.730;2023-01-26T02:58:26;98462.19;;;-3.50;88.15
19751;BME280;4663;49.120;9.730;2023-01-26T03:00:51;98457.97;;;-3.69;88.05
19751;BME280;4663;49.120;9.730;2023-01-26T03:03:21;98455.66;;;-3.59;88.24
19751;BME280;4663;49.120;9.730;2023-01-26T03:05:47;98461.53;;;-4.20;89.81
19751;BME280;4663;49.120;9.730;2023-01-26T03:08:13;98464.03;;;-4.01;90.25
19751;BME280;4663;49.120;9.730;2023-01-26T03:10:39;98454.09;;;-3.80;90.05
19751;BME280;4663;49.120;9.730;2023-01-26T03:13:04;98443.81;;;-3.68;89.19
19751;BME280;4663;49.120;9.730;2023-01-26T03:15:29;98445.88;;;-3.73;88.99
19751;BME280;4663;49.120;9.730;2023-01-26T03:18:12;98433.34;;;-3.54;88.23
19751;BME280;4663;49.120;9.730;2023-01-26T03:21:01;98435.38;;;-3.59;88.04
19751;BME280;4663;49.120;9.730;2023-01-26T03:23:45;98438.78;;;-3.41;87.77
19751;BME280;4663;49.120;9.730;2023-01-26T03:26:29;98448.50;;;-3.41;87.82
19751;BME280;4663;49.120;9.730;2023-01-26T03:29:13;98439.41;;;-3.68;87.68
19751;BME280;4663;49.120;9.730;2023-01-26T03:31:38;98445.50;;;-3.67;88.49
19751;BME280;4663;49.120;9.730;2023-01-26T03:34:04;98444.25;;;-3.76;88.59
19751;BME280;4663;49.120;9.730;2023-01-26T03:36:29;98442.47;;;-3.59;87.82
19751;BME280;4663;49.120;9.730;2023-01-26T03:38:55;98445.84;;;-3.57;87.98
19751;BME280;4663;49.120;9.730;2023-01-26T03:41:20;98441.06;;;-3.50;87.63
19751;BME280;4663;49.120;9.730;2023-01-26T03:44:04;98441.78;;;-3.47;86.82
19751;BME280;4663;49.120;9.730;2023-01-26T03:46:48;98444.59;;;-3.66;87.79
19751;BME280;4663;49.120;9.730;2023-01-26T03:49:32;98452.19;;;-4.10;87.83
19751;BME280;4663;49.120;9.730;2023-01-26T03:52:16;98452.22;;;-3.94;88.47
19751;BME280;4663;49.120;9.730;2023-01-26T03:55:00;98450.16;;;-4.05;89.07
19751;BME280;4663;49.120;9.730;2023-01-26T03:57:44;98448.78;;;-3.62;87.60
19751;BME280;4663;49.120;9.730;2023-01-26T04:00:10;98441.44;;;-3.57;87.54
19751;BME280;4663;49.120;9.730;2023-01-26T04:02:35;98447.53;;;-3.56;87.11
19751;BME280;4663;49.120;9.730;2023-01-26T04:05:19;98443.03;;;-3.54;86.99
19751;BME280;4663;49.120;9.730;2023-01-26T04:08:04;98439.88;;;-3.45;86.97
19751;BME280;4663;49.120;9.730;2023-01-26T04:10:49;98441.06;;;-3.50;86.20
19751;BME280;4663;49.120;9.730;2023-01-26T04:13:17;98446.19;;;-3.47;86.54
19751;BME280;4663;49.120;9.730;2023-01-26T04:16:02;98443.81;;;-3.68;87.15
19751;BME280;4663;49.120;9.730;2023-01-26T04:18:46;98438.69;;;-3.71;87.46
19751;BME280;4663;49.120;9.730;2023-01-26T04:21:30;98439.06;;;-3.78;86.92
19751;BME280;4663;49.120;9.730;2023-01-26T04:24:01;98445.00;;;-3.74;87.38
19751;BME280;4663;49.120;9.730;2023-01-26T04:26:34;98438.69;;;-3.87;87.17
19751;BME280;4663;49.120;9.730;2023-01-26T04:29:05;98447.53;;;-3.88;87.46
19751;BME280;4663;49.120;9.730;2023-01-26T04:31:31;98437.91;;;-3.89;88.34
19751;BME280;4663;49.120;9.730;2023-01-26T04:33:58;98429.50;;;-3.64;87.60
19751;BME280;4663;49.120;9.730;2023-01-26T04:36:23;98428.72;;;-3.50;86.73
19751;BME280;4663;49.120;9.730;2023-01-26T04:38:48;98430.78;;;-3.55;86.83
19751;BME280;4663;49.120;9.730;2023-01-26T04:41:14;98427.47;;;-3.75;87.35
19751;BME280;4663;49.120;9.730;2023-01-26T04:43:40;98421.13;;;-3.88;88.02
19751;BME280;4663;49.120;9.730;2023-01-26T04:46:06;98424.13;;;-3.79;87.94
19751;BME280;4663;49.120;9.730;2023-01-26T04:48:32;98423.38;;;-3.81;87.96
19751;BME280;4663;49.120;9.730;2023-01-26T04:51:00;98421.81;;;-4.01;88.82
19751;BME280;4663;49.120;9.730;2023-01-26T04:53:27;98411.78;;;-3.94;88.28
19751;BME280;4663;49.120;9.730;2023-01-26T04:55:52;98416.97;;;-3.93;88.06
19751;BME280;4663;49.120;9.730;2023-01-26T04:58:18;98416.63;;;-4.03;88.55
19751;BME280;4663;49.120;9.730;2023-01-26T05:00:56;98424.31;;;-4.32;89.69
19751;BME280;4663;49.120;9.730;2023-01-26T05:03:22;98420.00;;;-4.50;89.70
19751;BME280;4663;49.120;9.730;2023-01-26T05:05:50;98425.34;;;-4.18;90.09
19751;BME280;4663;49.120;9.730;2023-01-26T05:08:17;98429.44;;;-4.12;89.99
19751;BME280;4663;49.120;9.730;2023-01-26T05:10:43;98424.25;;;-4.14;89.20
19751;BME280;4663;49.120;9.730;2023-01-26T05:13:09;98417.72;;;-4.07;89.44
19751;BME280;4663;49.120;9.730;2023-01-26T05:15:35;98433.22;;;-4.00;88.97
19751;BME280;4663;49.120;9.730;2023-01-26T05:18:01;98439.03;;;-3.94;89.22
19751;BME280;4663;49.120;9.730;2023-01-26T05:20:26;98432.81;;;-4.26;89.35
19751;BME280;4663;49.120;9.730;2023-01-26T05:22:52;98427.03;;;-4.33;89.83
19751;BME280;4663;49.120;9.730;2023-01-26T05:25:18;98427.09;;;-4.35;90.20
19751;BME280;4663;49.120;9.730;2023-01-26T05:27:43;98429.53;;;-4.14;90.52
19751;BME280;4663;49.120;9.730;2023-01-26T05:30:09;98428.78;;;-4.16;90.34
19751;BME280;4663;49.120;9.730;2023-01-26T05:32:35;98421.44;;;-4.11;89.67
19751;BME280;4663;49.120;9.730;2023-01-26T05:35:01;98430.25;;;-3.94;89.08
19751;BME280;4663;49.120;9.730;2023-01-26T05:37:27;98426.69;;;-3.93;89.04
19751;BME280;4663;49.120;9.730;2023-01-26T05:39:53;98429.13;;;-4.06;89.00
19751;BME280;4663;49.120;9.730;2023-01-26T05:42:19;98434.41;;;-3.90;89.01
19751;BME280;4663;49.120;9.730;2023-01-26T05:44:44;98433.44;;;-3.87;88.87
19751;BME280;4663;49.120;9.730;2023-01-26T05:47:10;98428.97;;;-3.87;88.55
19751;BME280;4663;49.120;9.730;2023-01-26T05:49:35;98426.41;;;-3.88;88.17
19751;BME280;4663;49.120;9.730;2023-01-26T05:52:12;98439.59;;;-4.05;88.71
19751;BME280;4663;49.120;9.730;2023-01-26T05:54:38;98442.91;;;-4.01;88.56
19751;BME280;4663;49.120;9.730;2023-01-26T05:57:03;98431.69;;;-4.05;88.17
19751;BME280;4663;49.120;9.730;2023-01-26T05:59:29;98435.28;;;-4.06;88.32
19751;BME280;4663;49.120;9.730;2023-01-26T06:01:55;98430.47;;;-4.15;88.31
19751;BME280;4663;49.120;9.730;2023-01-26T06:04:20;98432.00;;;-4.27;88.10
19751;BME280;4663;49.120;9.730;2023-01-26T06:06:46;98425.31;;;-4.34;88.21
19751;BME280;4663;49.120;9.730;2023-01-26T06:09:11;98430.81;;;-4.05;87.92
19751;BME280;4663;49.120;9.730;2023-01-26T06:11:36;98422.31;;;-3.94;87.48
19751;BME280;4663;49.120;9.730;2023-01-26T06:14:02;98430.81;;;-4.05;87.56
19751;BME280;4663;49.120;9.730;2023-01-26T06:16:28;98439.09;;;-3.95;87.56
19751;BME280;4663;49.120;9.730;2023-01-26T06:18:53;98426.69;;;-3.77;87.23
19751;BME280;4663;49.120;9.730;2023-01-26T06:21:18;98429.13;;;-3.90;87.67
19751;BME280;4663;49.120;9.730;2023-01-26T06:23:44;98424.31;;;-3.82;87.24
19751;BME280;4663;49.120;9.730;2023-01-26T06:26:09;98422.25;;;-3.93;86.96
19751;BME280;4663;49.120;9.730;2023-01-26T06:28:35;98428.09;;;-4.04;87.13
19751;BME280;4663;49.120;9.730;2023-01-26T06:31:01;98434.25;;;-4.03;87.50
19751;BME280;4663;49.120;9.730;2023-01-26T06:33:26;98426.41;;;-4.05;87.14
19751;BME280;4663;49.120;9.730;2023-01-26T06:35:52;98435.78;;;-3.99;87.27
19751;BME280;4663;49.120;9.730;2023-01-26T06:38:19;98432.63;;;-4.06;87.37
19751;BME280;4663;49.120;9.730;2023-01-26T06:40:44;98432.16;;;-4.14;87.39
19751;BME280;4663;49.120;9.730;2023-01-26T06:43:09;98426.59;;;-3.92;87.34
19751;BME280;4663;49.120;9.730;2023-01-26T06:45:35;98426.00;;;-3.81;86.87
19751;BME280;4663;49.120;9.730;2023-01-26T06:48:00;98440.34;;;-4.03;86.51
19751;BME280;4663;49.120;9.730;2023-01-26T06:50:31;98429.88;;;-4.04;87.09
19751;BME280;4663;49.120;9.730;2023-01-26T06:52:59;98442.63;;;-4.28;87.12
19751;BME280;4663;49.120;9.730;2023-01-26T06:55:36;98438.59;;;-4.36;87.85
19751;BME280;4663;49.120;9.730;2023-01-26T06:58:02;98441.53;;;-4.24;87.95
19751;BME280;4663;49.120;9.730;2023-01-26T07:00:27;98437.88;;;-4.22;87.88
19751;BME280;4663;49.120;9.730;2023-01-26T07:02:53;98432.00;;;-4.27;87.30
19751;BME280;4663;49.120;9.730;2023-01-26T07:05:18;98431.88;;;-3.92;86.75
19751;BME280;4663;49.120;9.730;2023-01-26T07:07:44;98433.53;;;-4.23;86.71
19751;BME280;4663;49.120;9.730;2023-01-26T07:10:09;98441.06;;;-3.99;86.80
19751;BME280;4663;49.120;9.730;2023-01-26T07:12:43;98438.84;;;-3.74;85.95
19751;BME280;4663;49.120;9.730;2023-01-26T07:15:10;98437.94;;;-3.73;85.95
19751;BME280;4663;49.120;9.730;2023-01-26T07:17:39;98437.25;;;-3.61;85.90
19751;BME280;4663;49.120;9.730;2023-01-26T07:20:05;98443.97;;;-3.71;85.75
19751;BME280;4663;49.120;9.730;2023-01-26T07:22:31;98440.38;;;-3.70;85.13
19751;BME280;4663;49.120;9.730;2023-01-26T07:24:56;98446.88;;;-3.76;85.74
19751;BME280;4663;49.120;9.730;2023-01-26T07:27:21;98448.31;;;-3.70;85.46
19751;BME280;4663;49.120;9.730;2023-01-26T07:29:47;98455.63;;;-3.75;86.03
19751;BME280;4663;49.120;9.730;2023-01-26T07:32:12;98449.06;;;-3.84;85.84
19751;BME280;4663;49.120;9.730;2023-01-26T07:34:37;98451.91;;;-3.71;86.03
19751;BME280;4663;49.120;9.730;2023-01-26T07:37:03;98450.03;;;-3.69;86.15
19751;BME280;4663;49.120;9.730;2023-01-26T07:39:29;98454.88;;;-3.78;86.08
19751;BME280;4663;49.120;9.730;2023-01-26T07:41:55;98455.28;;;-3.85;85.63
19751;BME280;4663;49.120;9.730;2023-01-26T07:44:20;98463.81;;;-4.14;86.11
19751;BME280;4663;49.120;9.730;2023-01-26T07:46:46;98448.78;;;-4.12;86.28
19751;BME280;4663;49.120;9.730;2023-01-26T07:49:11;98452.44;;;-4.32;86.29
19751;BME280;4663;49.120;9.730;2023-01-26T07:51:38;98455.97;;;-4.32;87.02
19751;BME280;4663;49.120;9.730;2023-01-26T07:54:06;98455.50;;;-4.58;87.60
19751;BME280;4663;49.120;9.730;2023-01-26T07:56:34;98444.66;;;-4.00;86.79
19751;BME280;4663;49.120;9.730;2023-01-26T07:59:00;98439.88;;;-3.77;85.29
19751;BME280;4663;49.120;9.730;2023-01-26T08:01:25;98440.16;;;-3.82;85.29
19751;BME280;4663;49.120;9.730;2023-01-26T08:03:51;98448.22;;;-3.69;84.74
19751;BME280;4663;49.120;9.730;2023-01-26T08:06:20;98448.09;;;-3.49;84.82
19751;BME280;4663;49.120;9.730;2023-01-26T08:08:47;98440.59;;;-3.73;84.60
19751;BME280;4663;49.120;9.730;2023-01-26T08:11:16;98444.91;;;-3.72;84.33
19751;BME280;4663;49.120;9.730;2023-01-26T08:13:41;98441.69;;;-3.78;84.27
19751;BME280;4663;49.120;9.730;2023-01-26T08:16:08;98440.25;;;-3.83;85.02
19751;BME280;4663;49.120;9.730;2023-01-26T08:18:36;98440.72;;;-4.09;85.17
19751;BME280;4663;49.120;9.730;2023-01-26T08:21:02;98436.00;;;-4.20;85.48
19751;BME280;4663;49.120;9.730;2023-01-26T08:23:28;98432.22;;;-3.98;85.09
19751;BME280;4663;49.120;9.730;2023-01-26T08:25:53;98429.25;;;-3.75;85.18
19751;BME280;4663;49.120;9.730;2023-01-26T08:28:19;98424.53;;;-4.03;85.22
19751;BME280;4663;49.120;9.730;2023-01-26T08:30:44;98423.56;;;-4.51;85.58
19751;BME280;4663;49.120;9.730;2023-01-26T08:33:10;98427.38;;;-4.39;85.75
19751;BME280;4663;49.120;9.730;2023-01-26T08:35:35;98422.28;;;-4.26;85.20
19751;BME280;4663;49.120;9.730;2023-01-26T08:38:00;98427.09;;;-4.01;84.20
19751;BME280;4663;49.120;9.730;2023-01-26T08:40:26;98419.56;;;-3.75;84.02
19751;BME280;4663;49.120;9.730;2023-01-26T08:42:51;98422.13;;;-4.23;84.19
19751;BME280;4663;49.120;9.730;2023-01-26T08:45:18;98423.53;;;-4.00;83.98
19751;BME280;4663;49.120;9.730;2023-01-26T08:47:43;98424.13;;;-3.95;84.25
19751;BME280;4663;49.120;9.730;2023-01-26T08:50:10;98421.97;;;-4.20;84.51
19751;BME280;4663;49.120;9.730;2023-01-26T08:52:35;98424.72;;;-4.06;84.38
19751;BME280;4663;49.120;9.730;2023-01-26T08:55:02;98416.47;;;-3.99;84.12
19751;BME280;4663;49.120;9.730;2023-01-26T08:57:28;98421.06;;;-3.87;82.81
19751;BME280;4663;49.120;9.730;2023-01-26T08:59:56;98411.75;;;-4.10;83.36
19751;BME280;4663;49.120;9.730;2023-01-26T09:02:22;98408.97;;;-4.07;83.49
19751;BME280;4663;49.120;9.730;2023-01-26T09:04:47;98411.78;;;-3.78;82.50
19751;BME280;4663;49.120;9.730;2023-01-26T09:07:12;98424.00;;;-4.25;84.30
19751;BME280;4663;49.120;9.730;2023-01-26T09:09:38;98417.50;;;-4.36;84.14
19751;BME280;4663;49.120;9.730;2023-01-26T09:12:03;98402.25;;;-4.13;82.63
19751;BME280;4663;49.120;9.730;2023-01-26T09:14:29;98403.22;;;-4.32;82.22
19751;BME280;4663;49.120;9.730;2023-01-26T09:16:54;98420.81;;;-4.32;83.61
19751;BME280;4663;49.120;9.730;2023-01-26T09:19:20;98419.59;;;-4.09;83.06
19751;BME280;4663;49.120;9.730;2023-01-26T09:21:45;98426.81;;;-4.46;83.69
19751;BME280;4663;49.120;9.730;2023-01-26T09:24:11;98429.13;;;-3.90;83.61
19751;BME280;4663;49.120;9.730;2023-01-26T09:26:36;98432.41;;;-3.85;82.80
19751;BME280;4663;49.120;9.730;2023-01-26T09:29:01;98426.94;;;-3.98;82.36
19751;BME280;4663;49.120;9.730;2023-01-26T09:31:27;98431.56;;;-4.19;83.24
19751;BME280;4663;49.120;9.730;2023-01-26T09:33:53;98435.09;;;-4.03;83.14
19751;BME280;4663;49.120;9.730;2023-01-26T09:36:18;98424.22;;;-3.96;83.52
19751;BME280;4663;49.120;9.730;2023-01-26T09:38:44;98425.81;;;-3.94;83.25
19751;BME280;4663;49.120;9.730;2023-01-26T09:41:21;98426.66;;;-4.43;83.70
19751;BME280;4663;49.120;9.730;2023-01-26T09:43:59;98441.91;;;-3.98;84.20
19751;BME280;4663;49.120;9.730;2023-01-26T09:49:07;98434.56;;;-4.09;84.09
19751;BME280;4663;49.120;9.730;2023-01-26T09:51:44;98440.50;;;-4.73;85.90
19751;BME280;4663;49.120;9.730;2023-01-26T09:57:28;98442.09;;;-4.53;85.90
19751;BME280;4663;49.120;9.730;2023-01-26T10:08:00;98438.81;;;-4.07;85.15
19751;BME280;4663;49.120;9.730;2023-01-26T10:10:33;98434.84;;;-4.32;84.83
19751;BME280;4663;49.120;9.730;2023-01-26T10:12:59;98435.34;;;-4.41;85.45
19751;BME280;4663;49.120;9.730;2023-01-26T10:15:36;98439.38;;;-4.51;85.04
19751;BME280;4663;49.120;9.730;2023-01-26T10:18:11;98448.66;;;-4.26;84.79
19751;BME280;4663;49.120;9.730;2023-01-26T10:20:44;98444.28;;;-4.61;85.78
19751;BME280;4663;49.120;9.730;2023-01-26T10:23:31;98440.41;;;-4.89;85.45
19751;BME280;4663;49.120;9.730;2023-01-26T10:26:10;98441.84;;;-4.31;84.91
19751;BME280;4663;49.120;9.730;2023-01-26T10:28:37;98447.53;;;-4.56;84.55
19751;BME280;4663;49.120;9.730;2023-01-26T10:31:04;98430.63;;;-4.18;83.85
19751;BME280;4663;49.120;9.730;2023-01-26T10:33:32;98433.63;;;-4.42;84.51
19751;BME280;4663;49.120;9.730;2023-01-26T10:36:02;98440.31;;;-4.70;84.74
19751;BME280;4663;49.120;9.730;2023-01-26T10:41:05;98431.84;;;-4.08;83.19
19751;BME280;4663;49.120;9.730;2023-01-26T10:43:34;98425.63;;;-4.07;82.49
19751;BME280;4663;49.120;9.730;2023-01-26T10:46:02;98432.91;;;-4.28;82.66
19751;BME280;4663;49.120;9.730;2023-01-26T10:48:27;98440.13;;;-3.98;81.95
19751;BME280;4663;49.120;9.730;2023-01-26T10:50:53;98430.25;;;-4.28;81.76
19751;BME280;4663;49.120;9.730;2023-01-26T10:53:26;98433.22;;;-4.68;82.07
19751;BME280;4663;49.120;9.730;2023-01-26T10:56:00;98426.78;;;-4.28;81.52
19751;BME280;4663;49.120;9.730;2023-01-26T10:58:54;98423.88;;;-4.40;81.42
19751;BME280;4663;49.120;9.730;2023-01-26T11:01:20;98429.22;;;-4.42;81.36
19751;BME280;4663;49.120;9.730;2023-01-26T11:04:04;98425.91;;;-4.45;81.49
19751;BME280;4663;49.120;9.730;2023-01-26T11:06:30;98417.69;;;-4.74;80.79
19751;BME280;4663;49.120;9.730;2023-01-26T11:09:24;98425.63;;;-4.40;81.33
19751;BME280;4663;49.120;9.730;2023-01-26T11:12:03;98413.25;;;-4.38;80.84
19751;BME280;4663;49.120;9.730;2023-01-26T11:14:31;98416.25;;;-4.12;80.92
19751;BME280;4663;49.120;9.730;2023-01-26T11:17:20;98402.91;;;-4.09;79.89
19751;BME280;4663;49.120;9.730;2023-01-26T11:25:26;98398.84;;;-3.99;78.72
19751;BME280;4663;49.120;9.730;2023-01-26T11:33:07;98403.84;;;-3.94;79.41
19751;BME280;4663;49.120;9.730;2023-01-26T11:36:02;98388.47;;;-3.86;78.87
19751;BME280;4663;49.120;9.730;2023-01-26T11:38:40;98397.03;;;-3.98;79.20
19751;BME280;4663;49.120;9.730;2023-01-26T11:51:57;98395.22;;;-4.82;82.77
19751;BME280;4663;49.120;9.730;2023-01-26T11:54:54;98384.00;;;-4.34;82.88
19751;BME280;4663;49.120;9.730;2023-01-26T12:00:26;98376.63;;;-4.61;82.31
19751;BME280;4663;49.120;9.730;2023-01-26T12:03:01;98369.34;;;-4.39;82.04
19751;BME280;4663;49.120;9.730;2023-01-26T12:05:39;98370.53;;;-4.45;81.85
19751;BME280;4663;49.120;9.730;2023-01-26T12:08:14;98357.47;;;-3.98;81.73
19751;BME280;4663;49.120;9.730;2023-01-26T12:14:35;98353.41;;;-3.88;79.95
19751;BME280;4663;49.120;9.730;2023-01-26T12:19:33;98341.22;;;-4.07;79.56
19751;BME280;4663;49.120;9.730;2023-01-26T12:22:25;98346.31;;;-4.04;80.47
19751;BME280;4663;49.120;9.730;2023-01-26T12:30:39;98330.59;;;-3.89;80.50
19751;BME280;4663;49.120;9.730;2023-01-26T12:33:09;98322.50;;;-3.86;80.16
19751;BME280;4663;49.120;9.730;2023-01-26T12:36:02;98327.75;;;-4.18;80.23
19751;BME280;4663;49.120;9.730;2023-01-26T12:39:07;98313.31;;;-4.11;80.12
19751;BME280;4663;49.120;9.730;2023-01-26T12:44:44;98324.44;;;-3.73;79.14
19751;BME280;4663;49.120;9.730;2023-01-26T12:50:01;98316.53;;;-3.73;78.12
19751;BME280;4663;49.120;9.730;2023-01-26T12:52:41;98320.63;;;-4.16;79.80
19751;BME280;4663;49.120;9.730;2023-01-26T12:55:17;98326.44;;;-3.93;80.38
19751;BME280;4663;49.120;9.730;2023-01-26T12:57:49;98320.25;;;-3.61;79.96
19751;BME280;4663;49.120;9.730;2023-01-26T13:00:20;98324.41;;;-3.57;79.32
19751;BME280;4663;49.120;9.730;2023-01-26T13:02:53;98315.25;;;-3.66;79.08
19751;BME280;4663;49.120;9.730;2023-01-26T13:05:34;98321.03;;;-3.59;79.61
19751;BME280;4663;49.120;9.730;2023-01-26T13:10:58;98303.25;;;-4.52;80.23
19751;BME280;4663;49.120;9.730;2023-01-26T13:13:25;98308.88;;;-4.10;80.70
19751;BME280;4663;49.120;9.730;2023-01-26T13:18:55;98305.75;;;-4.17;80.18
19751;BME280;4663;49.120;9.730;2023-01-26T13:24:40;98302.47;;;-3.58;79.55
19751;BME280;4663;49.120;9.730;2023-01-26T13:26:56;98303.78;;;-3.97;79.68
19751;BME280;4663;49.120;9.730;2023-01-26T13:34:44;98297.91;;;-4.19;80.27
19751;BME280;4663;49.120;9.730;2023-01-26T13:37:16;98299.09;;;-3.76;80.86
19751;BME280;4663;49.120;9.730;2023-01-26T13:39:48;98301.09;;;-3.65;79.95
19751;BME280;4663;49.120;9.730;2023-01-26T13:42:21;98301.16;;;-3.97;79.70
19751;BME280;4663;49.120;9.730;2023-01-26T13:45:00;98306.88;;;-3.74;79.85
19751;BME280;4663;49.120;9.730;2023-01-26T13:47:31;98303.59;;;-3.78;79.46
19751;BME280;4663;49.120;9.730;2023-01-26T13:49:58;98303.84;;;-3.83;80.35
19751;BME280;4663;49.120;9.730;2023-01-26T13:52:25;98296.78;;;-3.66;80.06
19751;BME280;4663;49.120;9.730;2023-01-26T13:54:52;98311.28;;;-3.59;80.35
19751;BME280;4663;49.120;9.730;2023-01-26T13:57:27;98305.50;;;-3.49;79.79
19751;BME280;4663;49.120;9.730;2023-01-26T13:59:58;98307.19;;;-3.95;80.45
19751;BME280;4663;49.120;9.730;2023-01-26T14:02:31;98304.53;;;-4.27;81.01
19751;BME280;4663;49.120;9.730;2023-01-26T14:04:58;98319.34;;;-4.41;81.84
19751;BME280;4663;49.120;9.730;2023-01-26T14:07:43;98311.66;;;-4.46;82.59
19751;BME280;4663;49.120;9.730;2023-01-26T14:10:16;98311.03;;;-4.17;82.27
19751;BME280;4663;49.120;9.730;2023-01-26T14:12:46;98310.06;;;-4.48;82.46
19751;BME280;4663;49.120;9.730;2023-01-26T14:15:30;98313.81;;;-4.20;82.61
19751;BME280;4663;49.120;9.730;2023-01-26T14:18:01;98311.28;;;-4.06;82.24
19751;BME280;4663;49.120;9.730;2023-01-26T14:20:33;98313.03;;;-3.90;82.61
19751;BME280;4663;49.120;9.730;2023-01-26T14:23:15;98314.16;;;-3.94;82.44
19751;BME280;4663;49.120;9.730;2023-01-26T14:25:58;98324.28;;;-3.86;82.17
19751;BME280;4663;49.120;9.730;2023-01-26T14:28:27;98313.63;;;-4.33;82.17
19751;BME280;4663;49.120;9.730;2023-01-26T14:31:09;98326.78;;;-4.65;83.69
19751;BME280;4663;49.120;9.730;2023-01-26T14:33:37;98311.81;;;-4.49;82.77
19751;BME280;4663;49.120;9.730;2023-01-26T14:36:04;98321.31;;;-4.12;82.42
19751;BME280;4663;49.120;9.730;2023-01-26T14:38:39;98321.72;;;-4.20;82.46
19751;BME280;4663;49.120;9.730;2023-01-26T14:43:41;98323.25;;;-3.84;81.94